Richelieu/Messier Airport

CRM3 · Quebec, 加拿大

罗盘
风向 的 风向 240° Richelieu/Messier Airport 15/33
风向 到 风: 18 kt, 阵阵 23 kt, 5 beaufort

4 kt

17 kt
改变
0 ft 2.000 4.000 6.000 8.000 10.000
Cloud Cloud Cloud Cloud Cloud Cloud Cloud Cloud
OVC 7.600
METAR CYHU 201000Z AUTO 24018G23KT 9SM OVC076 08/M01 A2987 RMK SLP117

METAR Richelieu/Messier Airport - CRM3

Richelieu/Messier Airport是,加拿大中的小机场。 该机场位于纬度45,37818和经度-73,22715。 该机场有一条跑道: 15/33. 该机场的伪ICAO代码为CRM3。 机场在Montreal FIR中。

该航空气象观测是针对Montréal / Saint-Hubert Airport在2024年4月20日 06:00, 当地时间进行的。

机场观察

风向为240°,速度为18 kt。 已测得23 kt的阵风。

可见度为9 mi。

有乌云密布在7.600 ft的高度。 破损或更高的上限为7.600 ft。

温度为8 °C,阵风为2 °C。 露点为-1 °C,相对湿度为53%。 海平面上的气压为29,87 inHg (QNH)。

白天

今天,太阳从05:57升起,在19:45降落。 这适用于Richelieu/Messier Airport,世界夏令时可能有所不同。 当地时间与世界标准时间之间的时差为-4 小时。 夏令时目前正在进行中。

公司介绍

我们没有关于这个机场的公司信息。

体会

到Vliegles.nl去找飞行课程,跳伞和其他飞行体验。 浏览页面,了解Richelieu/Messier Airport附近所有可用的活动。 你也可以使用搜索功能来寻找你所在地附近的特定飞行课程、跳伞或其他飞行体验。

跑道

Id 标题 侧风 逆风 侧风 %
15/33 136°-316° 17-22 kt 4-6 kt 97 %

逆风成分最大的方向会被突出显示,并用于横风计算。 这并不一定意味着这个方向在使用。

乌云

7.600 ft OVC 乌云密布

温度 & 天气

温度 8 °C
露点 -1 °C
相对湿度 53%
风寒 2 °C
Kp-index 2 (0-9)

评论

SLP117海平面压力为29,88 inHg (29,88 inHg)

白天

日出
05:58
中午
12:52
日落
19:46 (12:51)

小工具

你想在你的网站上有一个关于Richelieu/Messier Airport的当前航空天气(METAR)的小部件吗?

显示HTML代码
报告变更